Terminal Aerodrome Forecast
Issued by NWS Atlanta, GA

Home | Current Version | Previous Version | Text Only | Print | Product List | Glossary On
Versions: 1 2 3 4 5 6 7 8 9 10 11 12 13 14 15 16 17 18 19 20 21 22 23 24 25 26 27 28 29 30 31 32 33 34 35 36 37 38 39 40 41 42 43 44 45 46 47 48 49 50
000
FTUS42 KFFC 190159 AAA
TAFATL
TAF AMD
KATL 190159Z 1902/2006 13004KT 6SM BR SCT020 OVC040
     FM190500 13005KT 3SM BR OVC008
     FM191000 14007KT 3/4SM BR VCSH OVC003
     FM191500 17012G20KT 3SM -SHRA BR OVC010
     FM192000 19015G25KT 5SM -SHRA BR OVC020
     FM200200 25012G20KT 5SM -SHRA BR BKN025=

USA.gov is the U.S. government's official web portal to all federal, state and local government web resources and services.